sensor_id;sensor_type;location;lat;lon;timestamp;P1;durP1;ratioP1;P2;durP2;ratioP2
79076;SDS011;68477;42.698;23.342;2024-02-14T00:01:15;7.43;;;5.50;;
79076;SDS011;68477;42.698;23.342;2024-02-14T00:03:41;7.93;;;4.47;;
79076;SDS011;68477;42.698;23.342;2024-02-14T00:06:06;9.48;;;5.43;;
79076;SDS011;68477;42.698;23.342;2024-02-14T00:08:32;8.77;;;5.22;;
79076;SDS011;68477;42.698;23.342;2024-02-14T00:10:58;8.32;;;5.70;;
79076;SDS011;68477;42.698;23.342;2024-02-14T00:13:23;6.65;;;4.63;;
79076;SDS011;68477;42.698;23.342;2024-02-14T00:15:49;8.40;;;4.78;;
79076;SDS011;68477;42.698;23.342;2024-02-14T00:18:14;7.72;;;4.75;;
79076;SDS011;68477;42.698;23.342;2024-02-14T00:20:44;8.20;;;5.13;;
79076;SDS011;68477;42.698;23.342;2024-02-14T00:23:10;9.23;;;4.40;;
79076;SDS011;68477;42.698;23.342;2024-02-14T00:25:36;6.78;;;4.05;;
79076;SDS011;68477;42.698;23.342;2024-02-14T00:28:02;8.70;;;5.43;;
79076;SDS011;68477;42.698;23.342;2024-02-14T00:30:29;9.95;;;5.53;;
79076;SDS011;68477;42.698;23.342;2024-02-14T00:32:54;9.85;;;4.78;;
79076;SDS011;68477;42.698;23.342;2024-02-14T00:35:20;8.00;;;4.90;;
79076;SDS011;68477;42.698;23.342;2024-02-14T00:37:46;9.00;;;4.97;;
79076;SDS011;68477;42.698;23.342;2024-02-14T00:40:12;9.20;;;5.30;;
79076;SDS011;68477;42.698;23.342;2024-02-14T00:42:38;8.20;;;5.03;;
79076;SDS011;68477;42.698;23.342;2024-02-14T00:45:03;7.97;;;3.58;;
79076;SDS011;68477;42.698;23.342;2024-02-14T00:47:32;7.70;;;4.68;;
79076;SDS011;68477;42.698;23.342;2024-02-14T00:49:58;9.48;;;5.10;;
79076;SDS011;68477;42.698;23.342;2024-02-14T00:52:23;9.55;;;5.30;;
79076;SDS011;68477;42.698;23.342;2024-02-14T00:54:49;8.60;;;4.78;;
79076;SDS011;68477;42.698;23.342;2024-02-14T00:57:14;6.18;;;3.67;;
79076;SDS011;68477;42.698;23.342;2024-02-14T00:59:40;9.65;;;4.28;;
79076;SDS011;68477;42.698;23.342;2024-02-14T01:02:06;8.35;;;5.30;;
79076;SDS011;68477;42.698;23.342;2024-02-14T01:04:32;9.07;;;5.22;;
79076;SDS011;68477;42.698;23.342;2024-02-14T01:06:57;8.77;;;5.50;;
79076;SDS011;68477;42.698;23.342;2024-02-14T01:09:24;8.45;;;5.55;;
79076;SDS011;68477;42.698;23.342;2024-02-14T01:11:49;8.43;;;5.28;;
79076;SDS011;68477;42.698;23.342;2024-02-14T01:14:15;8.70;;;5.70;;
79076;SDS011;68477;42.698;23.342;2024-02-14T01:16:44;9.00;;;5.28;;
79076;SDS011;68477;42.698;23.342;2024-02-14T01:19:10;9.60;;;5.85;;
79076;SDS011;68477;42.698;23.342;2024-02-14T01:21:36;9.93;;;5.18;;
79076;SDS011;68477;42.698;23.342;2024-02-14T01:24:02;7.15;;;4.28;;
79076;SDS011;68477;42.698;23.342;2024-02-14T01:26:30;10.60;;;5.05;;
79076;SDS011;68477;42.698;23.342;2024-02-14T01:28:56;9.32;;;5.00;;
79076;SDS011;68477;42.698;23.342;2024-02-14T01:31:21;9.73;;;5.63;;
79076;SDS011;68477;42.698;23.342;2024-02-14T01:33:47;9.30;;;6.25;;
79076;SDS011;68477;42.698;23.342;2024-02-14T01:36:13;10.25;;;5.65;;
79076;SDS011;68477;42.698;23.342;2024-02-14T01:38:38;10.57;;;6.45;;
79076;SDS011;68477;42.698;23.342;2024-02-14T01:41:05;11.05;;;5.65;;
79076;SDS011;68477;42.698;23.342;2024-02-14T01:43:30;8.32;;;5.50;;
79076;SDS011;68477;42.698;23.342;2024-02-14T01:46:03;7.30;;;4.65;;
79076;SDS011;68477;42.698;23.342;2024-02-14T01:48:30;10.63;;;6.40;;
79076;SDS011;68477;42.698;23.342;2024-02-14T01:50:56;10.35;;;6.28;;
79076;SDS011;68477;42.698;23.342;2024-02-14T01:53:22;8.65;;;5.75;;
79076;SDS011;68477;42.698;23.342;2024-02-14T01:55:51;9.20;;;5.97;;
79076;SDS011;68477;42.698;23.342;2024-02-14T01:58:17;10.02;;;6.03;;
79076;SDS011;68477;42.698;23.342;2024-02-14T02:00:43;10.20;;;5.97;;
79076;SDS011;68477;42.698;23.342;2024-02-14T02:03:09;8.88;;;5.70;;
79076;SDS011;68477;42.698;23.342;2024-02-14T02:05:36;8.07;;;5.18;;
79076;SDS011;68477;42.698;23.342;2024-02-14T02:08:01;10.50;;;6.13;;
79076;SDS011;68477;42.698;23.342;2024-02-14T02:10:27;12.00;;;6.47;;
79076;SDS011;68477;42.698;23.342;2024-02-14T02:12:57;9.10;;;6.13;;
79076;SDS011;68477;42.698;23.342;2024-02-14T02:15:24;8.60;;;6.13;;
79076;SDS011;68477;42.698;23.342;2024-02-14T02:17:51;9.10;;;5.75;;
79076;SDS011;68477;42.698;23.342;2024-02-14T02:20:18;10.90;;;6.07;;
79076;SDS011;68477;42.698;23.342;2024-02-14T02:22:45;10.48;;;6.57;;
79076;SDS011;68477;42.698;23.342;2024-02-14T02:25:12;8.20;;;5.32;;
79076;SDS011;68477;42.698;23.342;2024-02-14T02:27:38;10.82;;;6.03;;
79076;SDS011;68477;42.698;23.342;2024-02-14T02:30:04;10.85;;;5.93;;
79076;SDS011;68477;42.698;23.342;2024-02-14T02:32:31;9.93;;;6.20;;
79076;SDS011;68477;42.698;23.342;2024-02-14T02:34:56;18.10;;;5.82;;
79076;SDS011;68477;42.698;23.342;2024-02-14T02:37:23;9.27;;;6.25;;
79076;SDS011;68477;42.698;23.342;2024-02-14T02:39:49;8.10;;;5.82;;
79076;SDS011;68477;42.698;23.342;2024-02-14T02:42:15;11.10;;;6.32;;
79076;SDS011;68477;42.698;23.342;2024-02-14T02:44:42;11.35;;;6.70;;
79076;SDS011;68477;42.698;23.342;2024-02-14T02:47:07;11.40;;;6.65;;
79076;SDS011;68477;42.698;23.342;2024-02-14T02:49:34;10.68;;;5.97;;
79076;SDS011;68477;42.698;23.342;2024-02-14T02:52:02;9.98;;;5.80;;
79076;SDS011;68477;42.698;23.342;2024-02-14T02:54:28;12.15;;;6.25;;
79076;SDS011;68477;42.698;23.342;2024-02-14T02:56:53;10.52;;;6.72;;
79076;SDS011;68477;42.698;23.342;2024-02-14T02:59:19;9.43;;;5.32;;
79076;SDS011;68477;42.698;23.342;2024-02-14T03:01:44;11.40;;;6.88;;
79076;SDS011;68477;42.698;23.342;2024-02-14T03:04:11;8.07;;;5.68;;
79076;SDS011;68477;42.698;23.342;2024-02-14T03:06:38;9.95;;;5.95;;
79076;SDS011;68477;42.698;23.342;2024-02-14T03:09:04;10.52;;;6.03;;
79076;SDS011;68477;42.698;23.342;2024-02-14T03:11:30;9.35;;;5.55;;
79076;SDS011;68477;42.698;23.342;2024-02-14T03:13:56;10.23;;;6.47;;
79076;SDS011;68477;42.698;23.342;2024-02-14T03:16:23;12.63;;;6.85;;
79076;SDS011;68477;42.698;23.342;2024-02-14T03:18:49;11.10;;;6.63;;
79076;SDS011;68477;42.698;23.342;2024-02-14T03:21:15;11.02;;;6.80;;
79076;SDS011;68477;42.698;23.342;2024-02-14T03:23:40;10.45;;;6.40;;
79076;SDS011;68477;42.698;23.342;2024-02-14T03:26:06;10.40;;;6.85;;
79076;SDS011;68477;42.698;23.342;2024-02-14T03:28:33;10.93;;;6.88;;
79076;SDS011;68477;42.698;23.342;2024-02-14T03:30:59;11.25;;;6.85;;
79076;SDS011;68477;42.698;23.342;2024-02-14T03:33:24;12.30;;;7.00;;
79076;SDS011;68477;42.698;23.342;2024-02-14T03:35:50;9.52;;;6.38;;
79076;SDS011;68477;42.698;23.342;2024-02-14T03:38:27;9.77;;;6.03;;
79076;SDS011;68477;42.698;23.342;2024-02-14T03:40:54;12.48;;;7.00;;
79076;SDS011;68477;42.698;23.342;2024-02-14T03:43:20;9.35;;;6.32;;
79076;SDS011;68477;42.698;23.342;2024-02-14T03:45:48;12.40;;;6.30;;
79076;SDS011;68477;42.698;23.342;2024-02-14T03:48:14;13.70;;;8.10;;
79076;SDS011;68477;42.698;23.342;2024-02-14T03:50:39;10.73;;;7.03;;
79076;SDS011;68477;42.698;23.342;2024-02-14T03:53:05;11.73;;;7.53;;
79076;SDS011;68477;42.698;23.342;2024-02-14T03:55:31;9.35;;;6.28;;
79076;SDS011;68477;42.698;23.342;2024-02-14T03:57:57;12.40;;;6.93;;
79076;SDS011;68477;42.698;23.342;2024-02-14T04:00:22;12.18;;;6.82;;
79076;SDS011;68477;42.698;23.342;2024-02-14T04:02:48;13.05;;;6.72;;
79076;SDS011;68477;42.698;23.342;2024-02-14T04:05:14;10.52;;;7.13;;
79076;SDS011;68477;42.698;23.342;2024-02-14T04:07:40;10.88;;;6.75;;
79076;SDS011;68477;42.698;23.342;2024-02-14T04:10:05;12.90;;;7.50;;
79076;SDS011;68477;42.698;23.342;2024-02-14T04:12:32;12.10;;;7.43;;
79076;SDS011;68477;42.698;23.342;2024-02-14T04:14:57;11.60;;;7.15;;
79076;SDS011;68477;42.698;23.342;2024-02-14T04:17:23;12.65;;;7.28;;
79076;SDS011;68477;42.698;23.342;2024-02-14T04:19:49;14.77;;;7.30;;
79076;SDS011;68477;42.698;23.342;2024-02-14T04:22:15;17.70;;;7.63;;
79076;SDS011;68477;42.698;23.342;2024-02-14T04:24:40;13.25;;;7.95;;
79076;SDS011;68477;42.698;23.342;2024-02-14T04:27:06;10.80;;;6.78;;
79076;SDS011;68477;42.698;23.342;2024-02-14T04:29:31;11.40;;;8.05;;
79076;SDS011;68477;42.698;23.342;2024-02-14T04:31:59;12.10;;;7.85;;
79076;SDS011;68477;42.698;23.342;2024-02-14T04:34:25;13.77;;;8.05;;
79076;SDS011;68477;42.698;23.342;2024-02-14T04:36:50;14.18;;;8.48;;
79076;SDS011;68477;42.698;23.342;2024-02-14T04:39:16;13.57;;;8.38;;
79076;SDS011;68477;42.698;23.342;2024-02-14T04:41:42;13.27;;;7.22;;
79076;SDS011;68477;42.698;23.342;2024-02-14T04:44:08;12.45;;;7.88;;
79076;SDS011;68477;42.698;23.342;2024-02-14T04:46:33;13.70;;;8.18;;
79076;SDS011;68477;42.698;23.342;2024-02-14T04:49:00;10.48;;;5.22;;
79076;SDS011;68477;42.698;23.342;2024-02-14T04:51:28;16.33;;;8.65;;
79076;SDS011;68477;42.698;23.342;2024-02-14T04:53:57;12.35;;;7.75;;
79076;SDS011;68477;42.698;23.342;2024-02-14T04:56:26;13.50;;;7.82;;
79076;SDS011;68477;42.698;23.342;2024-02-14T04:58:55;12.65;;;8.43;;
79076;SDS011;68477;42.698;23.342;2024-02-14T05:01:21;12.75;;;8.20;;
79076;SDS011;68477;42.698;23.342;2024-02-14T05:03:46;15.13;;;9.18;;
79076;SDS011;68477;42.698;23.342;2024-02-14T05:06:13;16.52;;;9.15;;
79076;SDS011;68477;42.698;23.342;2024-02-14T05:08:39;14.57;;;6.90;;
79076;SDS011;68477;42.698;23.342;2024-02-14T05:11:04;12.38;;;7.93;;
79076;SDS011;68477;42.698;23.342;2024-02-14T05:13:30;12.75;;;8.15;;
79076;SDS011;68477;42.698;23.342;2024-02-14T05:15:56;14.00;;;7.68;;
79076;SDS011;68477;42.698;23.342;2024-02-14T05:18:22;14.90;;;9.00;;
79076;SDS011;68477;42.698;23.342;2024-02-14T05:20:47;17.98;;;7.97;;
79076;SDS011;68477;42.698;23.342;2024-02-14T05:23:14;16.10;;;9.45;;
79076;SDS011;68477;42.698;23.342;2024-02-14T05:25:42;14.55;;;8.45;;
79076;SDS011;68477;42.698;23.342;2024-02-14T05:28:08;15.68;;;9.55;;
79076;SDS011;68477;42.698;23.342;2024-02-14T05:30:38;16.70;;;9.32;;
79076;SDS011;68477;42.698;23.342;2024-02-14T05:33:04;17.20;;;9.23;;
79076;SDS011;68477;42.698;23.342;2024-02-14T05:35:30;14.10;;;9.13;;
79076;SDS011;68477;42.698;23.342;2024-02-14T05:37:55;14.57;;;9.25;;
79076;SDS011;68477;42.698;23.342;2024-02-14T05:40:21;17.83;;;10.85;;
79076;SDS011;68477;42.698;23.342;2024-02-14T05:42:46;14.32;;;8.48;;
79076;SDS011;68477;42.698;23.342;2024-02-14T05:45:12;15.77;;;9.23;;
79076;SDS011;68477;42.698;23.342;2024-02-14T05:47:39;13.60;;;8.50;;
79076;SDS011;68477;42.698;23.342;2024-02-14T05:50:05;11.70;;;8.93;;
79076;SDS011;68477;42.698;23.342;2024-02-14T05:52:33;16.88;;;9.07;;
79076;SDS011;68477;42.698;23.342;2024-02-14T05:54:59;14.60;;;9.48;;
79076;SDS011;68477;42.698;23.342;2024-02-14T05:57:25;16.85;;;10.00;;
79076;SDS011;68477;42.698;23.342;2024-02-14T05:59:51;13.95;;;8.75;;
79076;SDS011;68477;42.698;23.342;2024-02-14T06:02:17;16.30;;;9.32;;
79076;SDS011;68477;42.698;23.342;2024-02-14T06:04:44;14.52;;;8.75;;
79076;SDS011;68477;42.698;23.342;2024-02-14T06:07:09;16.63;;;8.20;;
79076;SDS011;68477;42.698;23.342;2024-02-14T06:09:36;16.83;;;9.70;;
79076;SDS011;68477;42.698;23.342;2024-02-14T06:12:02;15.95;;;9.25;;
79076;SDS011;68477;42.698;23.342;2024-02-14T06:14:28;16.90;;;9.30;;
79076;SDS011;68477;42.698;23.342;2024-02-14T06:16:55;14.95;;;9.32;;
79076;SDS011;68477;42.698;23.342;2024-02-14T06:19:22;17.75;;;9.52;;
79076;SDS011;68477;42.698;23.342;2024-02-14T06:21:47;12.38;;;7.43;;
79076;SDS011;68477;42.698;23.342;2024-02-14T06:24:13;16.05;;;9.32;;
79076;SDS011;68477;42.698;23.342;2024-02-14T06:26:39;10.23;;;6.13;;
79076;SDS011;68477;42.698;23.342;2024-02-14T06:29:06;12.77;;;8.38;;
79076;SDS011;68477;42.698;23.342;2024-02-14T06:31:31;12.40;;;8.02;;
79076;SDS011;68477;42.698;23.342;2024-02-14T06:33:57;18.63;;;8.88;;
79076;SDS011;68477;42.698;23.342;2024-02-14T06:36:22;13.57;;;8.85;;
79076;SDS011;68477;42.698;23.342;2024-02-14T06:38:48;15.07;;;7.82;;
79076;SDS011;68477;42.698;23.342;2024-02-14T06:41:14;14.32;;;8.98;;
79076;SDS011;68477;42.698;23.342;2024-02-14T06:43:40;14.68;;;7.55;;
79076;SDS011;68477;42.698;23.342;2024-02-14T06:46:05;14.77;;;9.02;;
79076;SDS011;68477;42.698;23.342;2024-02-14T06:48:31;12.15;;;8.10;;
79076;SDS011;68477;42.698;23.342;2024-02-14T06:50:57;13.85;;;7.63;;
79076;SDS011;68477;42.698;23.342;2024-02-14T06:53:22;11.43;;;7.35;;
79076;SDS011;68477;42.698;23.342;2024-02-14T06:55:48;12.80;;;7.57;;
79076;SDS011;68477;42.698;23.342;2024-02-14T06:58:13;14.43;;;8.35;;
79076;SDS011;68477;42.698;23.342;2024-02-14T07:00:39;12.77;;;7.57;;
79076;SDS011;68477;42.698;23.342;2024-02-14T07:03:06;15.77;;;8.18;;
79076;SDS011;68477;42.698;23.342;2024-02-14T07:05:31;10.95;;;7.85;;
79076;SDS011;68477;42.698;23.342;2024-02-14T07:07:57;14.35;;;8.10;;
79076;SDS011;68477;42.698;23.342;2024-02-14T07:10:22;12.77;;;8.25;;
79076;SDS011;68477;42.698;23.342;2024-02-14T07:12:48;15.05;;;8.70;;
79076;SDS011;68477;42.698;23.342;2024-02-14T07:15:13;11.27;;;6.38;;
79076;SDS011;68477;42.698;23.342;2024-02-14T07:17:40;12.48;;;7.78;;
79076;SDS011;68477;42.698;23.342;2024-02-14T07:20:05;13.35;;;7.63;;
79076;SDS011;68477;42.698;23.342;2024-02-14T07:22:34;15.88;;;8.48;;
79076;SDS011;68477;42.698;23.342;2024-02-14T07:25:00;12.05;;;6.55;;
79076;SDS011;68477;42.698;23.342;2024-02-14T07:27:25;14.05;;;8.18;;
79076;SDS011;68477;42.698;23.342;2024-02-14T07:29:52;8.93;;;5.88;;
79076;SDS011;68477;42.698;23.342;2024-02-14T07:32:17;10.20;;;6.22;;
79076;SDS011;68477;42.698;23.342;2024-02-14T07:34:43;11.52;;;6.40;;
79076;SDS011;68477;42.698;23.342;2024-02-14T07:37:08;14.05;;;6.40;;
79076;SDS011;68477;42.698;23.342;2024-02-14T07:39:34;11.13;;;7.13;;
79076;SDS011;68477;42.698;23.342;2024-02-14T07:42:00;10.40;;;6.50;;
79076;SDS011;68477;42.698;23.342;2024-02-14T07:44:27;15.73;;;7.80;;
79076;SDS011;68477;42.698;23.342;2024-02-14T07:46:52;11.13;;;6.38;;
79076;SDS011;68477;42.698;23.342;2024-02-14T07:49:18;10.50;;;6.40;;
79076;SDS011;68477;42.698;23.342;2024-02-14T07:51:44;16.45;;;7.75;;
79076;SDS011;68477;42.698;23.342;2024-02-14T07:54:10;7.13;;;5.25;;
79076;SDS011;68477;42.698;23.342;2024-02-14T07:56:36;13.57;;;6.70;;
79076;SDS011;68477;42.698;23.342;2024-02-14T07:59:02;10.25;;;6.85;;
79076;SDS011;68477;42.698;23.342;2024-02-14T08:01:27;12.27;;;7.10;;
79076;SDS011;68477;42.698;23.342;2024-02-14T08:03:53;11.48;;;7.20;;
79076;SDS011;68477;42.698;23.342;2024-02-14T08:06:19;11.25;;;7.63;;
79076;SDS011;68477;42.698;23.342;2024-02-14T08:08:45;15.27;;;7.15;;
79076;SDS011;68477;42.698;23.342;2024-02-14T08:11:10;9.20;;;5.75;;
79076;SDS011;68477;42.698;23.342;2024-02-14T08:13:36;12.27;;;6.75;;
79076;SDS011;68477;42.698;23.342;2024-02-14T08:16:04;14.60;;;7.22;;
79076;SDS011;68477;42.698;23.342;2024-02-14T08:18:31;12.50;;;6.43;;
79076;SDS011;68477;42.698;23.342;2024-02-14T08:20:57;13.30;;;7.00;;
79076;SDS011;68477;42.698;23.342;2024-02-14T08:23:22;11.00;;;7.65;;
79076;SDS011;68477;42.698;23.342;2024-02-14T08:25:48;16.60;;;6.70;;
79076;SDS011;68477;42.698;23.342;2024-02-14T08:28:14;13.95;;;7.10;;
79076;SDS011;68477;42.698;23.342;2024-02-14T08:30:40;17.02;;;6.10;;
79076;SDS011;68477;42.698;23.342;2024-02-14T08:33:06;13.93;;;5.28;;
79076;SDS011;68477;42.698;23.342;2024-02-14T08:35:31;10.02;;;6.90;;
79076;SDS011;68477;42.698;23.342;2024-02-14T08:37:58;11.85;;;7.00;;
79076;SDS011;68477;42.698;23.342;2024-02-14T08:40:24;10.68;;;6.25;;
79076;SDS011;68477;42.698;23.342;2024-02-14T08:42:50;9.18;;;5.45;;
79076;SDS011;68477;42.698;23.342;2024-02-14T08:45:16;9.38;;;6.13;;
79076;SDS011;68477;42.698;23.342;2024-02-14T08:47:43;12.85;;;6.65;;
79076;SDS011;68477;42.698;23.342;2024-02-14T08:50:09;10.90;;;6.88;;
79076;SDS011;68477;42.698;23.342;2024-02-14T08:52:35;16.90;;;9.27;;
79076;SDS011;68477;42.698;23.342;2024-02-14T08:55:04;10.77;;;6.85;;
79076;SDS011;68477;42.698;23.342;2024-02-14T08:59:57;12.05;;;7.57;;
79076;SDS011;68477;42.698;23.342;2024-02-14T09:02:22;12.95;;;7.30;;
79076;SDS011;68477;42.698;23.342;2024-02-14T09:04:48;11.93;;;6.75;;
79076;SDS011;68477;42.698;23.342;2024-02-14T09:07:14;16.90;;;8.20;;
79076;SDS011;68477;42.698;23.342;2024-02-14T09:09:41;12.15;;;5.75;;
79076;SDS011;68477;42.698;23.342;2024-02-14T09:12:06;10.85;;;6.30;;
79076;SDS011;68477;42.698;23.342;2024-02-14T09:14:32;16.25;;;7.63;;
79076;SDS011;68477;42.698;23.342;2024-02-14T09:16:58;8.90;;;5.30;;
79076;SDS011;68477;42.698;23.342;2024-02-14T09:19:24;7.53;;;4.25;;
79076;SDS011;68477;42.698;23.342;2024-02-14T09:21:50;19.85;;;6.82;;
79076;SDS011;68477;42.698;23.342;2024-02-14T09:24:16;10.07;;;7.13;;
79076;SDS011;68477;42.698;23.342;2024-02-14T09:26:41;12.38;;;7.57;;
79076;SDS011;68477;42.698;23.342;2024-02-14T09:29:08;12.02;;;6.95;;
79076;SDS011;68477;42.698;23.342;2024-02-14T09:31:36;7.68;;;5.00;;
79076;SDS011;68477;42.698;23.342;2024-02-14T09:34:01;10.50;;;6.28;;
79076;SDS011;68477;42.698;23.342;2024-02-14T09:36:27;10.82;;;7.25;;
79076;SDS011;68477;42.698;23.342;2024-02-14T09:38:54;10.63;;;6.90;;
79076;SDS011;68477;42.698;23.342;2024-02-14T09:41:22;12.07;;;6.63;;
79076;SDS011;68477;42.698;23.342;2024-02-14T09:43:51;9.63;;;6.05;;
79076;SDS011;68477;42.698;23.342;2024-02-14T09:46:17;8.93;;;4.70;;
79076;SDS011;68477;42.698;23.342;2024-02-14T09:48:43;10.07;;;6.47;;
79076;SDS011;68477;42.698;23.342;2024-02-14T09:51:12;13.05;;;7.50;;
79076;SDS011;68477;42.698;23.342;2024-02-14T09:53:38;11.25;;;6.40;;
79076;SDS011;68477;42.698;23.342;2024-02-14T09:56:05;11.70;;;7.40;;
79076;SDS011;68477;42.698;23.342;2024-02-14T09:58:31;11.82;;;7.45;;
79076;SDS011;68477;42.698;23.342;2024-02-14T10:00:57;8.25;;;4.40;;
79076;SDS011;68477;42.698;23.342;2024-02-14T10:03:23;9.75;;;6.15;;
79076;SDS011;68477;42.698;23.342;2024-02-14T10:05:48;17.42;;;7.97;;
79076;SDS011;68477;42.698;23.342;2024-02-14T10:08:14;11.68;;;6.68;;
79076;SDS011;68477;42.698;23.342;2024-02-14T10:10:40;8.00;;;5.53;;
79076;SDS011;68477;42.698;23.342;2024-02-14T10:13:06;11.77;;;6.20;;
79076;SDS011;68477;42.698;23.342;2024-02-14T10:15:32;8.48;;;4.90;;
79076;SDS011;68477;42.698;23.342;2024-02-14T10:17:58;14.32;;;6.85;;
79076;SDS011;68477;42.698;23.342;2024-02-14T10:20:25;9.18;;;6.43;;
79076;SDS011;68477;42.698;23.342;2024-02-14T10:22:51;10.35;;;6.57;;
79076;SDS011;68477;42.698;23.342;2024-02-14T10:25:17;16.00;;;6.47;;
79076;SDS011;68477;42.698;23.342;2024-02-14T10:27:44;14.85;;;7.95;;
79076;SDS011;68477;42.698;23.342;2024-02-14T10:30:12;8.15;;;5.50;;
79076;SDS011;68477;42.698;23.342;2024-02-14T10:32:39;13.43;;;6.28;;
79076;SDS011;68477;42.698;23.342;2024-02-14T10:35:14;11.13;;;5.95;;
79076;SDS011;68477;42.698;23.342;2024-02-14T10:37:41;11.55;;;6.63;;
79076;SDS011;68477;42.698;23.342;2024-02-14T10:40:08;10.40;;;6.07;;
79076;SDS011;68477;42.698;23.342;2024-02-14T10:42:36;11.63;;;6.30;;
79076;SDS011;68477;42.698;23.342;2024-02-14T10:45:02;8.38;;;5.47;;
79076;SDS011;68477;42.698;23.342;2024-02-14T10:47:34;13.02;;;7.15;;
79076;SDS011;68477;42.698;23.342;2024-02-14T10:50:04;11.13;;;6.53;;
79076;SDS011;68477;42.698;23.342;2024-02-14T10:52:31;7.97;;;4.43;;
79076;SDS011;68477;42.698;23.342;2024-02-14T10:55:02;13.30;;;7.25;;
79076;SDS011;68477;42.698;23.342;2024-02-14T10:57:29;16.88;;;8.32;;
79076;SDS011;68477;42.698;23.342;2024-02-14T10:59:57;10.05;;;6.10;;
79076;SDS011;68477;42.698;23.342;2024-02-14T11:02:27;7.65;;;4.72;;
79076;SDS011;68477;42.698;23.342;2024-02-14T11:04:55;12.70;;;6.95;;
79076;SDS011;68477;42.698;23.342;2024-02-14T11:07:21;13.02;;;6.47;;
79076;SDS011;68477;42.698;23.342;2024-02-14T11:10:05;11.02;;;6.80;;
79076;SDS011;68477;42.698;23.342;2024-02-14T11:15:11;11.50;;;6.43;;
79076;SDS011;68477;42.698;23.342;2024-02-14T11:17:41;11.13;;;5.95;;
79076;SDS011;68477;42.698;23.342;2024-02-14T11:20:11;9.13;;;5.45;;
79076;SDS011;68477;42.698;23.342;2024-02-14T11:25:37;10.18;;;6.45;;
79076;SDS011;68477;42.698;23.342;2024-02-14T11:28:16;10.95;;;6.97;;
79076;SDS011;68477;42.698;23.342;2024-02-14T11:30:45;9.52;;;6.00;;
79076;SDS011;68477;42.698;23.342;2024-02-14T11:33:21;10.73;;;5.40;;
79076;SDS011;68477;42.698;23.342;2024-02-14T11:35:52;9.98;;;6.53;;
79076;SDS011;68477;42.698;23.342;2024-02-14T11:38:19;13.77;;;6.07;;
79076;SDS011;68477;42.698;23.342;2024-02-14T11:40:45;9.60;;;6.00;;
79076;SDS011;68477;42.698;23.342;2024-02-14T11:43:14;16.65;;;6.50;;
79076;SDS011;68477;42.698;23.342;2024-02-14T11:45:45;11.55;;;6.65;;
79076;SDS011;68477;42.698;23.342;2024-02-14T11:48:14;12.57;;;6.47;;
79076;SDS011;68477;42.698;23.342;2024-02-14T11:50:42;15.52;;;7.18;;
79076;SDS011;68477;42.698;23.342;2024-02-14T11:53:13;13.05;;;6.95;;
79076;SDS011;68477;42.698;23.342;2024-02-14T11:55:42;12.20;;;6.88;;
79076;SDS011;68477;42.698;23.342;2024-02-14T11:58:11;10.15;;;7.28;;
79076;SDS011;68477;42.698;23.342;2024-02-14T12:00:38;14.23;;;6.95;;
79076;SDS011;68477;42.698;23.342;2024-02-14T12:03:09;11.50;;;7.05;;
79076;SDS011;68477;42.698;23.342;2024-02-14T12:05:37;10.82;;;6.28;;
79076;SDS011;68477;42.698;23.342;2024-02-14T12:08:06;10.23;;;6.93;;
79076;SDS011;68477;42.698;23.342;2024-02-14T12:12:58;11.38;;;6.50;;
79076;SDS011;68477;42.698;23.342;2024-02-14T12:15:29;14.27;;;7.60;;
79076;SDS011;68477;42.698;23.342;2024-02-14T12:17:55;11.13;;;7.20;;
79076;SDS011;68477;42.698;23.342;2024-02-14T12:20:22;10.73;;;6.63;;
79076;SDS011;68477;42.698;23.342;2024-02-14T12:22:51;11.45;;;6.85;;
79076;SDS011;68477;42.698;23.342;2024-02-14T12:25:16;8.70;;;5.95;;
79076;SDS011;68477;42.698;23.342;2024-02-14T12:27:42;10.23;;;6.45;;
79076;SDS011;68477;42.698;23.342;2024-02-14T12:30:15;10.68;;;6.72;;
79076;SDS011;68477;42.698;23.342;2024-02-14T12:32:40;9.93;;;6.25;;
79076;SDS011;68477;42.698;23.342;2024-02-14T12:35:06;15.63;;;7.78;;
79076;SDS011;68477;42.698;23.342;2024-02-14T12:37:33;11.98;;;7.50;;
79076;SDS011;68477;42.698;23.342;2024-02-14T12:39:58;13.32;;;6.78;;
79076;SDS011;68477;42.698;23.342;2024-02-14T12:42:24;9.10;;;4.90;;
79076;SDS011;68477;42.698;23.342;2024-02-14T12:44:53;13.43;;;6.40;;
79076;SDS011;68477;42.698;23.342;2024-02-14T12:47:19;11.85;;;7.20;;
79076;SDS011;68477;42.698;23.342;2024-02-14T12:49:46;9.25;;;6.18;;
79076;SDS011;68477;42.698;23.342;2024-02-14T12:52:13;12.63;;;6.38;;
79076;SDS011;68477;42.698;23.342;2024-02-14T12:54:39;14.85;;;6.35;;
79076;SDS011;68477;42.698;23.342;2024-02-14T12:57:04;9.93;;;6.18;;
79076;SDS011;68477;42.698;23.342;2024-02-14T12:59:31;10.30;;;6.00;;
79076;SDS011;68477;42.698;23.342;2024-02-14T13:01:57;11.60;;;5.10;;
79076;SDS011;68477;42.698;23.342;2024-02-14T13:04:22;13.60;;;5.57;;
79076;SDS011;68477;42.698;23.342;2024-02-14T13:06:48;13.70;;;6.15;;
79076;SDS011;68477;42.698;23.342;2024-02-14T13:09:14;8.07;;;4.85;;
79076;SDS011;68477;42.698;23.342;2024-02-14T13:11:40;14.00;;;6.35;;
79076;SDS011;68477;42.698;23.342;2024-02-14T13:14:07;10.90;;;5.30;;
79076;SDS011;68477;42.698;23.342;2024-02-14T13:16:34;9.23;;;5.57;;
79076;SDS011;68477;42.698;23.342;2024-02-14T13:18:59;10.35;;;5.55;;
79076;SDS011;68477;42.698;23.342;2024-02-14T13:21:25;11.20;;;5.78;;
79076;SDS011;68477;42.698;23.342;2024-02-14T13:23:51;12.65;;;5.85;;
79076;SDS011;68477;42.698;23.342;2024-02-14T13:26:16;11.73;;;5.70;;
79076;SDS011;68477;42.698;23.342;2024-02-14T13:28:44;9.57;;;6.28;;
79076;SDS011;68477;42.698;23.342;2024-02-14T13:31:09;10.00;;;5.70;;
79076;SDS011;68477;42.698;23.342;2024-02-14T13:33:35;12.70;;;6.30;;
79076;SDS011;68477;42.698;23.342;2024-02-14T13:36:01;10.88;;;7.35;;
79076;SDS011;68477;42.698;23.342;2024-02-14T13:38:29;11.50;;;6.97;;
79076;SDS011;68477;42.698;23.342;2024-02-14T13:40:55;8.27;;;4.88;;
79076;SDS011;68477;42.698;23.342;2024-02-14T13:43:20;10.68;;;6.20;;
79076;SDS011;68477;42.698;23.342;2024-02-14T13:45:46;10.30;;;5.63;;
79076;SDS011;68477;42.698;23.342;2024-02-14T13:48:13;11.75;;;5.65;;
79076;SDS011;68477;42.698;23.342;2024-02-14T13:50:38;9.18;;;5.28;;
79076;SDS011;68477;42.698;23.342;2024-02-14T13:53:04;11.93;;;6.20;;
79076;SDS011;68477;42.698;23.342;2024-02-14T13:55:31;9.20;;;6.10;;
79076;SDS011;68477;42.698;23.342;2024-02-14T13:57:56;11.95;;;7.00;;
79076;SDS011;68477;42.698;23.342;2024-02-14T14:00:23;12.18;;;6.10;;
79076;SDS011;68477;42.698;23.342;2024-02-14T14:02:49;10.93;;;7.18;;
79076;SDS011;68477;42.698;23.342;2024-02-14T14:05:14;18.50;;;7.07;;
79076;SDS011;68477;42.698;23.342;2024-02-14T14:07:40;18.95;;;7.32;;
79076;SDS011;68477;42.698;23.342;2024-02-14T14:10:06;12.05;;;6.20;;
79076;SDS011;68477;42.698;23.342;2024-02-14T14:12:34;11.15;;;6.65;;
79076;SDS011;68477;42.698;23.342;2024-02-14T14:15:00;15.57;;;7.00;;
79076;SDS011;68477;42.698;23.342;2024-02-14T14:17:26;12.82;;;6.78;;
79076;SDS011;68477;42.698;23.342;2024-02-14T14:19:52;11.95;;;7.13;;
79076;SDS011;68477;42.698;23.342;2024-02-14T14:22:18;12.20;;;6.70;;
79076;SDS011;68477;42.698;23.342;2024-02-14T14:24:44;14.25;;;6.15;;
79076;SDS011;68477;42.698;23.342;2024-02-14T14:27:10;18.83;;;7.25;;
79076;SDS011;68477;42.698;23.342;2024-02-14T14:29:39;9.55;;;5.32;;
79076;SDS011;68477;42.698;23.342;2024-02-14T14:32:06;9.50;;;5.78;;